National Weather Service Raw Text Product

Displaying AFOS PIL: TAFDSM Received: 2017-12-07 11:34 UTC


804 
FTUS43 KDMX 071134
TAFDSM
TAF
KDSM 071134Z 0712/0812 31013KT P6SM SKC
     FM080100 23006KT P6SM FEW250=